Time;durP1;ratioP1;P1;durP2;ratioP2;P2;SDS_P1;SDS_P2;PMS_P1;PMS_P2;Temp;Humidity;BMP_temperature;BMP_pressure;BME280_temperature;BME280_humidity;BME280_pressure;Samples;Min_cycle;Max_cycle;Signal;HPM_P1;HPM_P2
2023/05/01 00:00:42;;;;;;;6.75;2.15;;;;;;;10.76;69.97;101681.72;5013313;28;20113;-72
2023/05/01 00:03:08;;;;;;;10.48;2.35;;;;;;;10.74;70.53;101679.22;5014770;28;20382;-72
2023/05/01 00:05:33;;;;;;;7.18;1.85;;;;;;;10.60;70.11;101681.84;5036045;28;20037;-73
2023/05/01 00:07:59;;;;;;;4.05;1.42;;;;;;;10.18;68.55;101681.19;5012413;28;20076;-72
2023/05/01 00:10:24;;;;;;;6.57;1.35;;;;;;;10.11;67.93;101677.50;5012301;28;20053;-73
2023/05/01 00:12:49;;;;;;;3.88;1.70;;;;;;;10.24;68.03;101675.09;5013757;28;20086;-73
2023/05/01 00:15:15;;;;;;;4.70;1.83;;;;;;;10.22;67.91;101669.03;5012606;28;20084;-74
2023/05/01 00:17:41;;;;;;;7.78;2.10;;;;;;;10.18;67.94;101656.97;5014043;28;20096;-73
2023/05/01 00:20:07;;;;;;;5.55;1.98;;;;;;;10.22;68.20;101663.66;4996607;28;20030;-73
2023/05/01 00:22:33;;;;;;;7.20;1.95;;;;;;;10.11;68.67;101637.19;5014171;28;20397;-73
2023/05/01 00:24:58;;;;;;;6.28;1.77;;;;;;;10.23;69.17;101667.19;5012461;28;20025;-73
2023/05/01 00:27:24;;;;;;;4.43;1.92;;;;;;;10.16;70.31;101664.38;4996494;28;20033;-73
2023/05/01 00:29:49;;;;;;;5.70;2.08;;;;;;;10.04;70.72;101663.09;5012522;28;20065;-72
2023/05/01 00:32:14;;;;;;;7.43;1.90;;;;;;;10.06;70.60;101664.56;5013791;28;20504;-72
2023/05/01 00:34:40;;;;;;;9.52;1.90;;;;;;;10.02;70.54;101662.41;5014853;28;20093;-73
2023/05/01 00:37:06;;;;;;;5.75;2.00;;;;;;;10.05;70.62;101656.69;5006839;28;20030;-71
2023/05/01 00:39:31;;;;;;;5.47;2.05;;;;;;;10.00;71.20;101659.91;5032921;28;20048;-73
2023/05/01 00:41:57;;;;;;;4.68;1.90;;;;;;;9.95;71.44;101656.91;4997266;28;20032;-73
2023/05/01 00:44:22;;;;;;;4.88;1.90;;;;;;;9.93;71.67;101652.69;5011841;28;20045;-72
2023/05/01 00:46:48;;;;;;;5.00;1.85;;;;;;;9.77;72.13;101632.94;5012000;28;20524;-73
2023/05/01 00:49:14;;;;;;;3.15;1.70;;;;;;;9.88;71.93;101653.22;5013493;28;20059;-73
2023/05/01 00:51:40;;;;;;;4.43;1.58;;;;;;;9.85;72.75;101654.41;5013171;28;20116;-72
2023/05/01 00:54:05;;;;;;;7.25;1.77;;;;;;;9.84;72.21;101638.47;5017834;28;20058;-73
2023/05/01 00:56:31;;;;;;;4.90;1.95;;;;;;;9.71;72.73;101630.13;5012562;28;20442;-73
2023/05/01 00:58:56;;;;;;;4.75;1.75;;;;;;;9.80;72.43;101645.19;5013586;28;20057;-73
2023/05/01 01:01:22;;;;;;;3.63;1.65;;;;;;;9.82;72.92;101646.69;5012441;28;20029;-73
2023/05/01 01:03:50;;;;;;;4.75;2.10;;;;;;;9.83;72.67;101643.00;5017314;28;20393;-72
2023/05/01 01:06:38;;;;;;;5.63;2.03;;;;;;;9.73;73.42;101628.91;5017687;28;20037;-73
2023/05/01 01:09:22;;;;;;;5.60;1.95;;;;;;;9.79;73.58;101641.66;5017100;28;20026;-73
2023/05/01 01:11:47;;;;;;;4.50;1.67;;;;;;;9.77;73.28;101640.19;5017264;28;20033;-73
2023/05/01 01:14:44;;;;;;;5.93;2.00;;;;;;;9.75;74.33;101640.34;5016214;28;20026;-73
2023/05/01 01:17:28;;;;;;;3.30;1.88;;;;;;;9.69;74.41;101632.97;5010613;28;20065;-73
2023/05/01 01:20:15;;;;;;;5.90;1.75;;;;;;;9.66;74.22;101633.31;5019735;28;20034;-73
2023/05/01 01:22:48;;;;;;;2.38;1.60;;;;;;;9.64;74.53;101616.53;5024608;28;20091;-73
2023/05/01 01:25:17;;;;;;;3.85;1.88;;;;;;;9.59;74.39;101616.22;5016039;28;20029;-73
2023/05/01 01:27:57;;;;;;;7.05;2.00;;;;;;;9.59;74.50;101613.50;5015944;28;20029;-73
2023/05/01 01:30:25;;;;;;;3.30;1.70;;;;;;;9.56;74.80;101603.13;5016996;28;20026;-74
2023/05/01 01:33:28;;;;;;;4.93;1.83;;;;;;;9.56;74.60;101605.81;5015996;28;20504;-73
2023/05/01 01:35:56;;;;;;;4.80;1.80;;;;;;;9.41;74.55;101579.66;5015399;28;20022;-73
2023/05/01 01:38:39;;;;;;;2.67;2.08;;;;;;;9.56;74.24;101606.63;5015425;28;20069;-73
2023/05/01 01:41:22;;;;;;;5.57;1.88;;;;;;;9.53;75.15;101596.22;5014485;28;20037;-73
2023/05/01 01:43:59;;;;;;;4.22;2.30;;;;;;;9.51;75.05;101595.59;5014957;28;20080;-72
2023/05/01 01:46:25;;;;;;;6.10;2.00;;;;;;;9.37;75.23;101569.41;5016629;28;20025;-73
2023/05/01 01:48:53;;;;;;;4.55;1.88;;;;;;;9.48;75.77;101589.72;4997765;28;20037;-73
2023/05/01 01:51:21;;;;;;;4.00;2.13;;;;;;;9.47;75.80;101583.50;5015645;28;20539;-73
2023/05/01 01:53:52;;;;;;;5.72;2.03;;;;;;;9.50;76.01;101585.00;4982614;28;20049;-73
2023/05/01 01:56:21;;;;;;;3.75;2.22;;;;;;;9.43;76.36;101573.25;5015517;28;20017;-73
2023/05/01 01:58:50;;;;;;;6.05;2.08;;;;;;;9.31;76.74;101552.16;5015962;28;20049;-73
2023/05/01 02:01:17;;;;;;;7.65;2.05;;;;;;;9.45;76.76;101572.09;5015864;28;20034;-72
2023/05/01 02:03:45;;;;;;;5.13;2.13;;;;;;;9.53;77.15;101572.06;5014706;28;20057;-73
2023/05/01 02:06:12;;;;;;;7.18;2.45;;;;;;;9.41;77.04;101551.97;5024284;28;20030;-73
2023/05/01 02:08:38;;;;;;;4.45;2.15;;;;;;;9.54;77.09;101563.00;5016023;28;20030;-73
2023/05/01 02:11:05;;;;;;;7.93;2.50;;;;;;;9.57;77.52;101561.78;5014220;28;20026;-74
2023/05/01 02:13:32;;;;;;;6.95;2.72;;;;;;;9.59;77.44;101554.41;4997494;28;20038;-74
2023/05/01 02:16:01;;;;;;;4.57;2.63;;;;;;;9.56;77.77;101554.75;5014948;28;20029;-73
2023/05/01 02:18:28;;;;;;;4.68;2.53;;;;;;;9.54;78.12;101546.03;5014692;28;20026;-73
2023/05/01 02:20:57;;;;;;;6.70;3.05;;;;;;;9.53;78.20;101544.34;5014803;28;20032;-72
2023/05/01 02:23:25;;;;;;;9.45;2.92;;;;;;;9.51;78.40;101552.59;5016093;28;20060;-73
2023/05/01 02:25:52;;;;;;;11.07;3.47;;;;;;;9.50;78.25;101550.06;5015432;28;20032;-73
2023/05/01 02:28:22;;;;;;;6.68;3.30;;;;;;;9.55;79.17;101542.34;5014367;28;20080;-73
2023/05/01 02:30:48;;;;;;;6.97;3.65;;;;;;;9.57;79.06;101545.66;5014691;28;20073;-72
2023/05/01 02:33:13;;;;;;;8.60;3.80;;;;;;;9.62;79.09;101548.69;5013427;28;20030;-73
2023/05/01 02:35:40;;;;;;;10.85;4.05;;;;;;;9.61;79.83;101533.59;4997830;28;20033;-72
2023/05/01 02:38:06;;;;;;;8.85;4.15;;;;;;;9.58;80.33;101536.63;5015159;28;20524;-72
2023/05/01 02:40:33;;;;;;;7.95;4.03;;;;;;;9.63;80.34;101539.59;4997804;28;20159;-72
2023/05/01 02:43:03;;;;;;;13.50;4.40;;;;;;;9.62;81.16;101533.41;5015002;28;20489;-72
2023/05/01 02:45:31;;;;;;;14.00;4.28;;;;;;;9.67;81.19;101534.72;5014298;28;20029;-72
2023/05/01 02:47:59;;;;;;;5.75;3.85;;;;;;;9.60;81.36;101519.31;5013184;28;20116;-72
2023/05/01 02:50:26;;;;;;;6.60;3.90;;;;;;;9.70;81.96;101529.00;5013708;28;20018;-73
2023/05/01 02:52:52;;;;;;;14.43;4.88;;;;;;;9.70;81.92;101529.84;5015053;28;20367;-72
2023/05/01 02:55:17;;;;;;;10.30;4.15;;;;;;;9.75;82.07;101522.09;5013498;28;20026;-73
2023/05/01 02:57:43;;;;;;;10.45;3.90;;;;;;;9.75;82.46;101518.56;5020152;28;20053;-73
2023/05/01 03:00:09;;;;;;;8.55;4.38;;;;;;;9.75;82.23;101510.50;5015523;28;20036;-73
2023/05/01 03:02:34;;;;;;;11.50;3.90;;;;;;;9.64;83.14;101492.94;5013720;28;20041;-73
2023/05/01 03:05:00;;;;;;;8.85;3.95;;;;;;;9.70;83.34;101505.66;5013791;28;20489;-73
2023/05/01 03:07:30;;;;;;;9.95;3.70;;;;;;;9.74;82.83;101498.91;5013981;28;20057;-73
2023/05/01 03:09:55;;;;;;;9.13;3.90;;;;;;;9.68;82.66;101483.50;5012459;28;20084;-73
2023/05/01 03:12:21;;;;;;;9.52;4.22;;;;;;;9.71;83.41;101493.91;5013168;28;20033;-73
2023/05/01 03:14:46;;;;;;;9.82;3.97;;;;;;;9.73;83.71;101491.84;4996700;28;20505;-72
2023/05/01 03:17:12;;;;;;;6.32;3.85;;;;;;;9.73;83.64;101480.25;5012557;28;20437;-73
2023/05/01 03:19:37;;;;;;;10.18;4.45;;;;;;;9.60;83.97;101464.72;5013087;28;20464;-73
2023/05/01 03:22:02;;;;;;;11.90;4.60;;;;;;;9.49;84.80;101454.38;5013310;28;20392;-72
2023/05/01 03:24:28;;;;;;;8.60;4.38;;;;;;;9.66;84.50;101472.06;5013825;28;20637;-73
2023/05/01 03:26:53;;;;;;;11.43;4.43;;;;;;;9.70;84.31;101477.94;5011946;28;20485;-73
2023/05/01 03:29:19;;;;;;;8.82;4.35;;;;;;;9.69;84.59;101473.56;5012956;28;20045;-73
2023/05/01 03:31:44;;;;;;;13.13;5.25;;;;;;;9.71;84.99;101474.25;4980565;28;20125;-73
2023/05/01 03:34:10;;;;;;;12.05;4.78;;;;;;;9.74;84.10;101461.28;5013143;28;20496;-72
2023/05/01 03:36:35;;;;;;;11.50;5.47;;;;;;;9.73;84.19;101454.22;5014030;28;20046;-74
2023/05/01 03:39:01;;;;;;;13.18;5.47;;;;;;;9.74;85.26;101463.97;5013095;28;20101;-73
2023/05/01 03:41:28;;;;;;;11.00;5.18;;;;;;;9.74;84.93;101455.91;5013397;28;20370;-73
2023/05/01 03:43:54;;;;;;;13.73;5.90;;;;;;;9.77;85.09;101444.81;4996825;28;20091;-73
2023/05/01 03:46:20;;;;;;;10.68;5.82;;;;;;;9.75;84.97;101436.09;5025513;28;20017;-73
2023/05/01 03:48:45;;;;;;;14.57;6.55;;;;;;;9.78;84.90;101443.78;4996830;28;20168;-73
2023/05/01 03:51:11;;;;;;;15.45;6.55;;;;;;;9.80;85.32;101435.53;4996377;28;20124;-73
2023/05/01 03:53:36;;;;;;;12.52;6.80;;;;;;;9.76;85.47;101424.31;5012917;28;20033;-73
2023/05/01 03:56:03;;;;;;;14.68;6.85;;;;;;;9.76;85.74;101421.63;5013447;28;20029;-73
2023/05/01 03:58:29;;;;;;;12.70;6.80;;;;;;;9.85;85.54;101431.31;5012041;28;20021;-73
2023/05/01 04:00:57;;;;;;;13.52;7.57;;;;;;;9.91;85.78;101424.38;5013525;28;20370;-73
2023/05/01 04:03:22;;;;;;;15.93;7.82;;;;;;;9.94;85.55;101429.41;5012849;28;20038;-73
2023/05/01 04:05:48;;;;;;;15.38;7.68;;;;;;;9.87;86.24;101410.47;5013216;28;20046;-73
2023/05/01 04:08:13;;;;;;;17.17;7.75;;;;;;;9.82;86.35;101402.09;4996001;28;20117;-73
2023/05/01 04:10:38;;;;;;;19.67;6.85;;;;;;;9.85;86.91;101415.19;4995108;28;20385;-73
2023/05/01 04:13:05;;;;;;;15.95;6.32;;;;;;;9.84;87.60;101416.19;5012206;28;20037;-73
2023/05/01 04:15:31;;;;;;;14.68;6.50;;;;;;;9.74;87.86;101390.59;5012344;28;20060;-73
2023/05/01 04:17:57;;;;;;;13.18;6.53;;;;;;;9.93;87.44;101413.44;4995961;28;20034;-73
2023/05/01 04:20:22;;;;;;;15.30;5.90;;;;;;;9.84;87.95;101413.50;5012589;28;20025;-73
2023/05/01 04:22:48;;;;;;;11.25;5.47;;;;;;;9.87;88.13;101405.09;5012504;28;20493;-73
2023/05/01 04:25:13;;;;;;;11.05;5.53;;;;;;;9.83;88.55;101409.16;5012628;28;20026;-72
2023/05/01 04:27:39;;;;;;;10.10;5.78;;;;;;;9.81;89.36;101394.22;5012620;28;20064;-73
2023/05/01 04:30:05;;;;;;;15.75;6.32;;;;;;;9.89;89.45;101394.16;5011992;28;20033;-73
2023/05/01 04:32:30;;;;;;;15.60;6.30;;;;;;;9.94;88.48;101396.31;5011842;28;20037;-73
2023/05/01 04:34:55;;;;;;;16.00;6.40;;;;;;;9.97;89.12;101395.97;5012175;28;20132;-73
2023/05/01 04:37:21;;;;;;;13.98;5.80;;;;;;;9.95;88.90;101393.44;4997351;28;20049;-73
2023/05/01 04:39:46;;;;;;;13.95;6.22;;;;;;;9.94;89.02;101388.25;5016644;28;20497;-73
2023/05/01 04:42:12;;;;;;;14.68;5.50;;;;;;;9.94;89.65;101381.00;5000141;28;20079;-74
2023/05/01 04:44:37;;;;;;;13.57;5.93;;;;;;;9.97;89.54;101388.72;5032374;28;20036;-73
2023/05/01 04:47:06;;;;;;;11.60;5.05;;;;;;;9.72;90.55;101347.75;5017382;28;20022;-73
2023/05/01 04:49:31;;;;;;;12.68;5.20;;;;;;;9.99;90.83;101375.09;5016043;28;20493;-73
2023/05/01 04:51:57;;;;;;;11.82;4.32;;;;;;;9.90;90.63;101358.22;5016419;28;20058;-73
2023/05/01 04:54:23;;;;;;;7.55;4.22;;;;;;;9.99;90.59;101361.63;5025983;28;20093;-73
2023/05/01 04:56:48;;;;;;;10.10;4.93;;;;;;;10.00;90.63;101360.63;5028737;28;20034;-74
2023/05/01 04:59:14;;;;;;;11.07;4.68;;;;;;;10.00;90.76;101366.00;5008251;28;20026;-73
2023/05/01 05:01:39;;;;;;;10.35;4.45;;;;;;;9.96;90.29;101346.69;5017649;28;20026;-73
2023/05/01 05:04:04;;;;;;;9.73;4.28;;;;;;;10.11;89.83;101357.50;5016002;28;20037;-73
2023/05/01 05:06:30;;;;;;;10.30;4.75;;;;;;;10.03;90.76;101338.75;5017046;28;20140;-73
2023/05/01 05:08:56;;;;;;;10.15;4.45;;;;;;;10.10;90.13;101340.53;5015341;28;20030;-73
2023/05/01 05:11:22;;;;;;;9.10;4.40;;;;;;;10.09;90.38;101329.94;5015155;28;20026;-73
2023/05/01 05:13:47;;;;;;;12.27;5.28;;;;;;;10.09;90.35;101330.78;4999273;28;20513;-73
2023/05/01 05:16:14;;;;;;;10.00;4.43;;;;;;;10.22;90.55;101330.16;5015517;28;20026;-73
2023/05/01 05:18:39;;;;;;;9.63;5.30;;;;;;;10.30;90.55;101326.59;5016773;28;20060;-73
2023/05/01 05:21:06;;;;;;;18.85;5.25;;;;;;;10.37;90.75;101340.16;5015296;28;20037;-73
2023/05/01 05:23:31;;;;;;;10.95;5.05;;;;;;;10.38;90.63;101333.72;5015389;28;20026;-72
2023/05/01 05:26:00;;;;;;;10.75;4.88;;;;;;;10.40;91.00;101328.97;5015378;28;20034;-72
2023/05/01 05:28:26;;;;;;;11.50;5.63;;;;;;;10.38;91.53;101323.81;5015095;28;20049;-73
2023/05/01 05:30:52;;;;;;;10.90;5.32;;;;;;;10.50;90.67;101321.50;5031412;28;20030;-73
2023/05/01 05:33:18;;;;;;;13.85;5.38;;;;;;;10.53;90.79;101315.75;5015391;28;20051;-74
2023/05/01 05:35:43;;;;;;;13.35;5.10;;;;;;;10.56;91.43;101315.34;4998820;28;20041;-73
2023/05/01 05:38:09;;;;;;;14.23;5.15;;;;;;;10.64;90.81;101319.81;4999852;28;20056;-73
2023/05/01 05:40:35;;;;;;;13.15;4.85;;;;;;;10.72;91.23;101314.31;5021478;28;20034;-73
2023/05/01 05:43:00;;;;;;;13.45;4.70;;;;;;;10.62;90.83;101298.47;5017479;28;20030;-73
2023/05/01 05:45:26;;;;;;;9.70;5.00;;;;;;;10.74;90.78;101304.22;4999478;28;20053;-73
2023/05/01 05:47:51;;;;;;;13.70;5.35;;;;;;;10.82;90.78;101310.31;5006616;28;20026;-73
2023/05/01 05:50:17;;;;;;;14.85;5.85;;;;;;;10.88;91.24;101308.72;5027836;28;20026;-73
2023/05/01 05:52:42;;;;;;;10.95;4.90;;;;;;;10.79;91.43;101307.16;4999313;28;20080;-73
2023/05/01 05:55:08;;;;;;;12.27;4.85;;;;;;;10.76;91.46;101284.16;5013367;28;20648;-74
2023/05/01 05:57:36;;;;;;;11.52;4.97;;;;;;;10.93;90.96;101294.72;4997693;28;20026;-73
2023/05/01 06:00:04;;;;;;;12.85;5.00;;;;;;;11.00;91.24;101299.16;5014889;28;20060;-74
2023/05/01 06:02:30;;;;;;;10.40;4.65;;;;;;;11.06;91.21;101300.25;5016222;28;20029;-74
2023/05/01 06:04:56;;;;;;;12.27;5.00;;;;;;;11.09;91.20;101294.47;5015417;28;20504;-73
2023/05/01 06:07:22;;;;;;;12.90;4.75;;;;;;;11.17;91.29;101282.75;5015681;28;20034;-73
2023/05/01 06:09:48;;;;;;;12.60;4.45;;;;;;;11.24;91.51;101286.34;5015201;28;20101;-74
2023/05/01 06:12:13;;;;;;;10.32;4.53;;;;;;;11.42;90.20;101286.75;5015928;28;20056;-73
2023/05/01 06:14:39;;;;;;;11.27;4.93;;;;;;;11.49;90.54;101268.78;5015461;28;20037;-72
2023/05/01 06:17:06;;;;;;;16.02;5.00;;;;;;;11.54;90.70;101262.78;5015645;28;20101;-73
2023/05/01 06:19:31;;;;;;;8.63;4.45;;;;;;;11.68;90.03;101275.34;5014652;28;20145;-73
2023/05/01 06:21:57;;;;;;;11.40;4.40;;;;;;;11.79;90.10;101270.44;5015302;28;20057;-71
2023/05/01 06:24:22;;;;;;;15.07;4.95;;;;;;;11.89;89.70;101262.91;5013756;28;20030;-70
2023/05/01 06:26:48;;;;;;;13.45;5.47;;;;;;;11.94;89.76;101255.88;5014228;28;20034;-72
2023/05/01 06:29:13;;;;;;;13.15;4.68;;;;;;;11.85;90.20;101253.50;5013774;28;20034;-74
2023/05/01 06:31:39;;;;;;;10.07;4.28;;;;;;;11.91;89.93;101255.44;5020982;28;20158;-70
2023/05/01 06:34:04;;;;;;;13.38;4.68;;;;;;;12.08;89.34;101250.56;5015629;28;20034;-74
2023/05/01 06:36:30;;;;;;;10.82;4.40;;;;;;;12.11;89.18;101245.59;5014071;28;20080;-69
2023/05/01 06:38:55;;;;;;;12.35;4.57;;;;;;;12.27;88.64;101243.63;5013234;28;20061;-70
2023/05/01 06:41:21;;;;;;;12.95;4.40;;;;;;;12.28;88.43;101234.47;5012853;28;20034;-71
2023/05/01 06:43:47;;;;;;;12.25;4.57;;;;;;;12.41;88.27;101243.47;5014247;28;20059;-73
2023/05/01 06:46:12;;;;;;;12.63;4.00;;;;;;;12.65;87.55;101236.75;5013239;28;20040;-72
2023/05/01 06:48:38;;;;;;;12.70;4.40;;;;;;;12.79;86.96;101228.69;5014551;28;20041;-71
2023/05/01 06:51:03;;;;;;;10.40;4.15;;;;;;;12.72;87.24;101225.97;5013430;28;20032;-69
2023/05/01 06:53:29;;;;;;;11.60;4.25;;;;;;;12.76;87.23;101231.78;5014437;28;20060;-70
2023/05/01 06:55:55;;;;;;;10.88;3.90;;;;;;;12.69;87.51;101227.19;5014058;28;20028;-71
2023/05/01 06:58:20;;;;;;;11.20;3.85;;;;;;;12.74;87.39;101217.66;4997998;28;20026;-72
2023/05/01 07:00:45;;;;;;;12.45;4.20;;;;;;;12.72;86.82;101217.03;5015617;28;20473;-72
2023/05/01 07:03:11;;;;;;;11.80;3.50;;;;;;;12.74;87.14;101214.94;5014295;28;20040;-72
2023/05/01 07:05:39;;;;;;;11.57;4.07;;;;;;;12.78;86.87;101214.34;5013542;28;20026;-73
2023/05/01 07:08:05;;;;;;;13.88;3.47;;;;;;;12.69;87.05;101211.00;5012500;28;20065;-72
2023/05/01 07:10:30;;;;;;;14.45;3.70;;;;;;;12.78;86.28;101219.75;5013080;28;20022;-73
2023/05/01 07:12:56;;;;;;;12.63;3.25;;;;;;;12.81;85.86;101207.69;5013772;28;20080;-72
2023/05/01 07:15:22;;;;;;;11.95;3.92;;;;;;;12.82;85.98;101204.81;5013131;28;20045;-73
2023/05/01 07:17:49;;;;;;;10.32;3.30;;;;;;;12.81;86.22;101208.53;5013850;28;20060;-73
2023/05/01 07:20:15;;;;;;;15.02;3.15;;;;;;;12.73;86.15;101206.03;5015789;28;20021;-70
2023/05/01 07:22:41;;;;;;;7.72;2.97;;;;;;;12.79;85.71;101201.69;5011941;28;20154;-71
2023/05/01 07:25:07;;;;;;;11.57;3.20;;;;;;;12.81;85.74;101196.88;5013094;28;20030;-71
2023/05/01 07:27:33;;;;;;;11.77;3.50;;;;;;;12.68;85.30;101160.75;5011100;28;20038;-70
2023/05/01 07:30:01;;;;;;;11.07;3.33;;;;;;;12.61;85.84;101170.66;5011247;28;20443;-70
2023/05/01 07:32:26;;;;;;;12.32;3.00;;;;;;;12.83;85.35;101176.75;5011035;28;20104;-71
2023/05/01 07:34:52;;;;;;;10.32;3.80;;;;;;;12.85;84.96;101181.97;5011493;28;20034;-70
2023/05/01 07:37:17;;;;;;;12.45;3.22;;;;;;;12.94;84.75;101175.31;5012629;28;20050;-70
2023/05/01 07:39:43;;;;;;;9.98;3.38;;;;;;;12.74;84.70;101152.84;5011729;28;20033;-70
2023/05/01 07:42:09;;;;;;;9.05;3.50;;;;;;;12.76;85.21;101157.00;5019416;28;20098;-70
2023/05/01 07:44:34;;;;;;;8.57;3.08;;;;;;;12.95;84.64;101163.50;5015469;28;20073;-70
2023/05/01 07:47:04;;;;;;;11.15;3.08;;;;;;;12.87;85.16;101159.09;5012251;28;20525;-69
2023/05/01 07:49:35;;;;;;;8.80;3.25;;;;;;;12.96;84.32;101140.00;5013482;28;20025;-70
2023/05/01 07:52:01;;;;;;;13.73;3.33;;;;;;;12.97;84.55;101145.19;5011555;28;20022;-69
2023/05/01 07:54:26;;;;;;;8.80;3.30;;;;;;;12.84;84.50;101137.06;5017882;28;20036;-69
2023/05/01 07:56:51;;;;;;;7.30;3.55;;;;;;;12.85;84.42;101144.16;4995051;28;20037;-69
2023/05/01 07:59:17;;;;;;;10.57;3.50;;;;;;;12.83;84.45;101144.34;5012708;28;20429;-70
2023/05/01 08:01:42;;;;;;;8.90;3.08;;;;;;;12.84;84.29;101137.06;5012068;28;20426;-70
2023/05/01 08:04:08;;;;;;;9.57;3.38;;;;;;;12.89;84.18;101140.00;4995199;28;20069;-71
2023/05/01 08:06:33;;;;;;;12.77;3.53;;;;;;;12.95;83.71;101133.78;5014134;28;20026;-70
2023/05/01 08:08:58;;;;;;;11.40;4.30;;;;;;;12.95;84.11;101139.19;5013207;28;20112;-70
2023/05/01 08:11:25;;;;;;;10.63;4.07;;;;;;;12.87;84.43;101131.25;5017148;28;20033;-71
2023/05/01 08:13:50;;;;;;;11.93;3.95;;;;;;;12.93;83.53;101131.25;5045708;28;20079;-71
2023/05/01 08:16:16;;;;;;;10.35;4.18;;;;;;;13.00;83.31;101125.88;5031304;28;20033;-71
2023/05/01 08:18:42;;;;;;;9.35;3.45;;;;;;;12.75;83.29;101105.88;5032010;28;20028;-70
2023/05/01 08:21:07;;;;;;;9.50;3.15;;;;;;;12.87;83.29;101131.25;5031937;28;20025;-70
2023/05/01 08:23:34;;;;;;;12.30;3.40;;;;;;;12.83;83.35;101130.00;5032206;28;20029;-70
2023/05/01 08:25:59;;;;;;;10.57;3.42;;;;;;;12.82;83.20;101122.97;5031726;28;20607;-71
2023/05/01 08:28:28;;;;;;;10.82;4.75;;;;;;;12.78;82.58;101122.53;5031726;28;20089;-70
2023/05/01 08:30:53;;;;;;;12.40;4.30;;;;;;;12.76;82.97;101119.19;5035410;28;20033;-71
2023/05/01 08:33:19;;;;;;;8.30;3.72;;;;;;;12.89;82.43;101116.50;5032135;28;20040;-71
2023/05/01 08:35:44;;;;;;;10.55;3.80;;;;;;;13.04;81.63;101119.00;5029868;28;20026;-71
2023/05/01 08:38:10;;;;;;;11.00;4.28;;;;;;;13.08;81.47;101103.25;5030984;28;20412;-70
2023/05/01 08:40:40;;;;;;;12.60;4.05;;;;;;;12.91;81.16;101079.34;5032363;28;20033;-70
2023/05/01 08:43:05;;;;;;;13.98;6.80;;;;;;;13.15;80.85;101098.66;5014573;28;20044;-70
2023/05/01 08:45:36;;;;;;;19.55;8.88;;;;;;;13.21;81.02;101110.47;5032571;28;20025;-71
2023/05/01 08:48:11;;;;;;;16.48;7.90;;;;;;;13.28;80.61;101114.88;5031040;28;20106;-71
2023/05/01 08:50:39;;;;;;;16.00;8.82;;;;;;;13.34;80.42;101105.09;5031653;28;20030;-70
2023/05/01 08:53:05;;;;;;;11.25;4.28;;;;;;;13.44;80.39;101102.78;5030228;28;20052;-70
2023/05/01 08:55:33;;;;;;;12.45;4.00;;;;;;;13.38;80.73;101100.94;5030784;28;20065;-70
2023/05/01 08:58:00;;;;;;;12.60;3.60;;;;;;;13.41;80.25;101076.22;5031651;28;20033;-71
2023/05/01 09:00:27;;;;;;;11.80;3.70;;;;;;;13.55;80.29;101098.63;5030703;28;20055;-71
2023/05/01 09:02:54;;;;;;;14.95;4.13;;;;;;;13.49;80.42;101085.94;5031242;28;20026;-70
2023/05/01 09:05:20;;;;;;;14.00;3.90;;;;;;;13.61;79.73;101095.91;5030341;28;20079;-71
2023/05/01 09:07:47;;;;;;;13.70;4.63;;;;;;;13.57;80.35;101093.81;5030358;28;20029;-70
2023/05/01 09:10:14;;;;;;;13.05;3.67;;;;;;;13.48;80.23;101087.81;5032340;28;20061;-70
2023/05/01 09:12:43;;;;;;;10.95;3.88;;;;;;;13.60;79.91;101082.59;5045104;28;20077;-70
2023/05/01 09:15:11;;;;;;;8.95;4.18;;;;;;;13.70;79.75;101082.16;5035213;28;20033;-71
2023/05/01 09:17:37;;;;;;;15.73;4.20;;;;;;;13.70;79.92;101082.16;5030310;28;20021;-70
2023/05/01 09:20:06;;;;;;;21.13;5.22;;;;;;;13.73;79.84;101079.00;5052117;28;20075;-70
2023/05/01 09:22:33;;;;;;;15.70;4.80;;;;;;;13.74;79.93;101073.41;5038576;28;20084;-71
2023/05/01 09:24:58;;;;;;;13.90;4.10;;;;;;;13.56;80.74;101062.44;5035326;28;20040;-70
2023/05/01 09:27:26;;;;;;;11.60;4.45;;;;;;;13.46;80.72;101054.75;5035272;28;20026;-71
2023/05/01 09:29:51;;;;;;;11.48;4.13;;;;;;;13.63;80.65;101074.06;5035151;28;20029;-71
2023/05/01 09:32:23;;;;;;;11.27;4.28;;;;;;;13.85;80.50;101066.50;5033234;28;20079;-70
2023/05/01 09:34:50;;;;;;;16.10;4.82;;;;;;;13.83;80.32;101064.00;5035074;28;20022;-71
2023/05/01 09:37:27;;;;;;;11.95;4.40;;;;;;;13.83;80.34;101068.56;5033945;28;20556;-70
2023/05/01 09:40:01;;;;;;;16.67;4.50;;;;;;;13.95;80.15;101068.75;5034561;28;20400;-70
2023/05/01 09:42:27;;;;;;;12.10;4.70;;;;;;;13.79;80.96;101064.66;5034737;28;20071;-70
2023/05/01 09:44:53;;;;;;;14.18;4.60;;;;;;;13.84;80.75;101062.09;5034512;28;20033;-71
2023/05/01 09:47:21;;;;;;;13.10;5.18;;;;;;;14.05;80.40;101066.41;5031786;28;20037;-70
2023/05/01 09:49:48;;;;;;;12.90;4.68;;;;;;;14.14;79.69;101062.41;5034361;28;20052;-70
2023/05/01 09:52:14;;;;;;;14.32;5.35;;;;;;;14.16;79.64;101048.66;5035278;28;20037;-71
2023/05/01 09:54:40;;;;;;;15.00;5.00;;;;;;;14.31;79.24;101055.44;5046894;28;20032;-70
2023/05/01 09:57:05;;;;;;;14.30;4.88;;;;;;;14.29;79.63;101051.28;5043743;28;20041;-71
2023/05/01 09:59:33;;;;;;;12.15;4.68;;;;;;;14.31;79.28;101046.50;5035169;28;20040;-70
2023/05/01 10:01:58;;;;;;;14.95;4.72;;;;;;;14.44;79.08;101051.81;5033012;28;20036;-71
2023/05/01 10:04:34;;;;;;;10.88;5.22;;;;;;;14.59;78.81;101048.00;5034752;28;20037;-70
2023/05/01 10:07:12;;;;;;;17.08;5.15;;;;;;;14.39;79.50;101042.69;5033344;28;20038;-71
2023/05/01 10:09:37;;;;;;;17.98;5.88;;;;;;;14.45;79.35;101028.28;5033595;28;20013;-69
2023/05/01 10:12:03;;;;;;;16.98;5.70;;;;;;;14.50;79.55;101037.44;5034293;28;20366;-70
2023/05/01 10:14:37;;;;;;;18.27;5.82;;;;;;;14.67;79.42;101017.91;5032904;28;20021;-70
2023/05/01 10:17:16;;;;;;;16.25;5.80;;;;;;;14.60;79.13;101023.38;5033478;28;20044;-71
2023/05/01 10:19:42;;;;;;;17.02;6.68;;;;;;;14.52;79.65;101023.66;5033909;28;20117;-71
2023/05/01 10:22:07;;;;;;;13.65;6.40;;;;;;;14.53;79.83;101007.19;5034080;28;20093;-74
2023/05/01 10:24:33;;;;;;;18.00;5.97;;;;;;;14.38;80.02;101009.38;5015943;28;20061;-70
2023/05/01 10:27:00;;;;;;;23.25;7.78;;;;;;;14.48;80.01;101012.41;5014853;28;20493;-70
2023/05/01 10:29:28;;;;;;;21.23;6.50;;;;;;;14.20;80.99;100984.91;5032613;28;20030;-71
2023/05/01 10:31:54;;;;;;;19.90;6.53;;;;;;;14.14;80.95;101002.03;5036399;28;20055;-71
2023/05/01 10:34:24;;;;;;;17.45;6.70;;;;;;;14.12;80.74;100991.44;5031497;28;20029;-72
2023/05/01 10:36:59;;;;;;;17.63;6.78;;;;;;;14.24;80.32;100981.56;5030893;28;20052;-71
2023/05/01 10:39:32;;;;;;;17.95;7.03;;;;;;;14.56;79.72;100995.91;5032582;28;20086;-72
2023/05/01 10:41:58;;;;;;;20.98;7.00;;;;;;;14.68;79.48;101003.34;5036236;28;20381;-71
2023/05/01 10:44:26;;;;;;;16.38;7.03;;;;;;;14.67;79.48;100997.09;5033797;28;20041;-71
2023/05/01 10:46:53;;;;;;;17.13;6.95;;;;;;;14.62;79.71;100982.56;5037676;28;20087;-71
2023/05/01 10:49:18;;;;;;;20.33;7.00;;;;;;;14.62;79.28;100982.56;5017879;28;20033;-71
2023/05/01 10:51:59;;;;;;;16.50;6.60;;;;;;;14.87;78.60;100986.09;5017183;28;20029;-71
2023/05/01 10:54:26;;;;;;;15.77;6.47;;;;;;;14.98;77.39;100982.63;5034971;28;20029;-71
2023/05/01 10:56:58;;;;;;;15.32;5.95;;;;;;;15.18;76.84;100978.88;5033521;28;20021;-74
2023/05/01 10:59:24;;;;;;;16.30;6.38;;;;;;;15.11;77.01;100973.53;5035413;28;20632;-72
2023/05/01 11:01:51;;;;;;;12.82;6.25;;;;;;;15.28;76.14;100973.75;5033199;28;20029;-73
2023/05/01 11:04:23;;;;;;;17.90;6.68;;;;;;;15.28;76.26;100960.22;5033968;28;20507;-74
2023/05/01 11:07:00;;;;;;;14.85;6.28;;;;;;;15.25;75.50;100972.31;5033265;28;20025;-71
2023/05/01 11:09:53;;;;;;;19.00;6.95;;;;;;;15.27;76.18;100969.41;5034276;28;20032;-73
2023/05/01 11:12:47;;;;;;;20.88;7.60;;;;;;;15.18;75.65;100954.50;5032675;28;20243;-73
2023/05/01 11:15:29;;;;;;;17.48;6.65;;;;;;;15.13;75.27;100957.88;5031605;28;20021;-72
2023/05/01 11:17:55;;;;;;;17.92;6.72;;;;;;;15.48;75.28;100949.94;5034493;28;20444;-72
2023/05/01 11:20:23;;;;;;;17.77;8.48;;;;;;;15.92;75.34;100953.34;5044974;28;20059;-72
2023/05/01 11:22:51;;;;;;;17.83;8.35;;;;;;;15.73;74.99;100939.03;5031369;28;20045;-73